sensor_id;sensor_type;location;lat;lon;timestamp;pressure;altitude;pressure_sealevel;temperature;humidity
33191;BME280;19554;42.652;23.364;2023-03-13T00:01:47;94782.19;;;4.67;43.08
33191;BME280;19554;42.652;23.364;2023-03-13T00:04:13;94866.47;;;5.24;42.62
33191;BME280;19554;42.652;23.364;2023-03-13T00:06:39;94861.16;;;5.24;42.68
33191;BME280;19554;42.652;23.364;2023-03-13T00:09:07;94858.53;;;5.24;42.69
33191;BME280;19554;42.652;23.364;2023-03-13T00:11:32;94857.16;;;5.21;42.81
33191;BME280;19554;42.652;23.364;2023-03-13T00:14:00;94862.72;;;5.20;42.88
33191;BME280;19554;42.652;23.364;2023-03-13T00:16:27;94860.06;;;5.20;43.07
33191;BME280;19554;42.652;23.364;2023-03-13T00:18:55;94849.84;;;5.07;43.05
33191;BME280;19554;42.652;23.364;2023-03-13T00:21:23;94870.41;;;4.99;43.61
33191;BME280;19554;42.652;23.364;2023-03-13T00:23:49;94861.28;;;4.90;43.58
33191;BME280;19554;42.652;23.364;2023-03-13T00:26:17;94875.56;;;4.89;43.62
33191;BME280;19554;42.652;23.364;2023-03-13T00:28:44;94877.19;;;4.73;44.26
33191;BME280;19554;42.652;23.364;2023-03-13T00:31:12;94867.28;;;4.64;44.39
33191;BME280;19554;42.652;23.364;2023-03-13T00:33:39;94786.81;;;4.16;44.14
33191;BME280;19554;42.652;23.364;2023-03-13T00:36:07;94872.09;;;4.67;43.69
33191;BME280;19554;42.652;23.364;2023-03-13T00:38:34;94874.25;;;4.70;44.03
33191;BME280;19554;42.652;23.364;2023-03-13T00:41:01;94873.69;;;4.68;43.88
33191;BME280;19554;42.652;23.364;2023-03-13T00:43:28;94876.25;;;4.63;44.07
33191;BME280;19554;42.652;23.364;2023-03-13T00:45:53;94855.47;;;4.49;44.15
33191;BME280;19554;42.652;23.364;2023-03-13T00:48:19;94758.91;;;3.86;44.20
33191;BME280;19554;42.652;23.364;2023-03-13T00:50:44;94826.50;;;4.38;43.70
33191;BME280;19554;42.652;23.364;2023-03-13T00:53:09;94857.19;;;4.61;43.65
33191;BME280;19554;42.652;23.364;2023-03-13T00:55:35;94836.38;;;4.47;43.66
33191;BME280;19554;42.652;23.364;2023-03-13T00:58:00;94832.91;;;4.42;43.93
33191;BME280;19554;42.652;23.364;2023-03-13T01:00:26;94811.31;;;4.28;44.04
33191;BME280;19554;42.652;23.364;2023-03-13T01:02:51;94869.94;;;4.47;43.96
33191;BME280;19554;42.652;23.364;2023-03-13T01:05:16;94850.69;;;4.13;44.94
33191;BME280;19554;42.652;23.364;2023-03-13T01:07:42;94858.69;;;4.18;44.99
33191;BME280;19554;42.652;23.364;2023-03-13T01:10:08;94859.09;;;4.10;45.06
33191;BME280;19554;42.652;23.364;2023-03-13T01:12:33;94876.63;;;4.16;45.24
33191;BME280;19554;42.652;23.364;2023-03-13T01:14:58;94831.81;;;3.87;44.81
33191;BME280;19554;42.652;23.364;2023-03-13T01:17:24;94855.97;;;4.13;44.90
33191;BME280;19554;42.652;23.364;2023-03-13T01:19:49;94816.59;;;3.94;44.56
33191;BME280;19554;42.652;23.364;2023-03-13T01:22:14;94879.50;;;4.31;44.26
33191;BME280;19554;42.652;23.364;2023-03-13T01:24:40;94867.91;;;4.32;44.61
33191;BME280;19554;42.652;23.364;2023-03-13T01:27:05;94855.16;;;4.29;44.48
33191;BME280;19554;42.652;23.364;2023-03-13T01:29:31;94873.88;;;4.44;44.50
33191;BME280;19554;42.652;23.364;2023-03-13T01:31:56;94879.72;;;4.46;44.31
33191;BME280;19554;42.652;23.364;2023-03-13T01:34:21;94885.59;;;4.48;44.34
33191;BME280;19554;42.652;23.364;2023-03-13T01:36:47;94877.97;;;4.52;44.58
33191;BME280;19554;42.652;23.364;2023-03-13T01:39:15;94856.91;;;4.40;44.44
33191;BME280;19554;42.652;23.364;2023-03-13T01:41:41;94883.09;;;4.59;44.80
33191;BME280;19554;42.652;23.364;2023-03-13T01:44:26;94894.38;;;4.54;44.69
33191;BME280;19554;42.652;23.364;2023-03-13T01:46:52;94892.47;;;4.49;45.09
33191;BME280;19554;42.652;23.364;2023-03-13T01:49:26;94881.75;;;4.39;45.12
33191;BME280;19554;42.652;23.364;2023-03-13T01:51:54;94889.25;;;4.47;45.30
33191;BME280;19554;42.652;23.364;2023-03-13T01:54:29;94894.69;;;4.41;45.31
33191;BME280;19554;42.652;23.364;2023-03-13T01:57:04;94895.44;;;4.36;45.30
33191;BME280;19554;42.652;23.364;2023-03-13T01:59:38;94897.03;;;4.37;45.25
33191;BME280;19554;42.652;23.364;2023-03-13T02:02:05;94885.50;;;4.26;45.18
33191;BME280;19554;42.652;23.364;2023-03-13T02:04:36;94852.06;;;3.98;45.48
33191;BME280;19554;42.652;23.364;2023-03-13T02:07:08;94837.41;;;3.91;45.70
33191;BME280;19554;42.652;23.364;2023-03-13T02:09:36;94894.72;;;4.24;45.69
33191;BME280;19554;42.652;23.364;2023-03-13T02:12:08;94893.13;;;4.23;45.50
33191;BME280;19554;42.652;23.364;2023-03-13T02:14:36;94837.16;;;3.92;45.54
33191;BME280;19554;42.652;23.364;2023-03-13T02:17:03;94860.44;;;3.95;45.46
33191;BME280;19554;42.652;23.364;2023-03-13T02:19:39;94763.31;;;3.30;45.25
33191;BME280;19554;42.652;23.364;2023-03-13T02:22:20;94903.28;;;4.14;45.58
33191;BME280;19554;42.652;23.364;2023-03-13T02:27:34;94866.91;;;3.71;46.31
33191;BME280;19554;42.652;23.364;2023-03-13T02:30:00;94919.50;;;3.89;47.02
33191;BME280;19554;42.652;23.364;2023-03-13T02:32:27;94927.81;;;3.81;47.31
33191;BME280;19554;42.652;23.364;2023-03-13T02:34:57;94915.00;;;3.73;46.94
33191;BME280;19554;42.652;23.364;2023-03-13T02:37:26;94931.97;;;3.77;46.83
33191;BME280;19554;42.652;23.364;2023-03-13T02:39:54;94929.22;;;3.72;47.34
33191;BME280;19554;42.652;23.364;2023-03-13T02:42:21;94937.59;;;3.69;47.05
33191;BME280;19554;42.652;23.364;2023-03-13T02:44:47;94930.78;;;3.56;47.19
33191;BME280;19554;42.652;23.364;2023-03-13T02:47:20;94951.56;;;3.52;47.62
33191;BME280;19554;42.652;23.364;2023-03-13T02:49:46;94900.72;;;3.17;47.46
33191;BME280;19554;42.652;23.364;2023-03-13T02:54:41;94958.81;;;3.45;47.60
33191;BME280;19554;42.652;23.364;2023-03-13T02:57:09;94961.47;;;3.45;47.52
33191;BME280;19554;42.652;23.364;2023-03-13T02:59:34;94953.81;;;3.32;47.92
33191;BME280;19554;42.652;23.364;2023-03-13T03:01:59;94962.06;;;3.36;48.35
33191;BME280;19554;42.652;23.364;2023-03-13T03:04:25;94967.81;;;3.32;48.85
33191;BME280;19554;42.652;23.364;2023-03-13T03:06:51;94956.44;;;3.32;48.65
33191;BME280;19554;42.652;23.364;2023-03-13T03:09:17;94955.28;;;3.28;49.20
33191;BME280;19554;42.652;23.364;2023-03-13T03:11:43;94941.44;;;3.21;48.93
33191;BME280;19554;42.652;23.364;2023-03-13T03:14:10;94936.06;;;3.16;48.59
33191;BME280;19554;42.652;23.364;2023-03-13T03:16:36;94925.31;;;3.05;49.00
33191;BME280;19554;42.652;23.364;2023-03-13T03:19:02;94960.81;;;3.26;48.89
33191;BME280;19554;42.652;23.364;2023-03-13T03:21:28;94948.13;;;3.12;49.23
33191;BME280;19554;42.652;23.364;2023-03-13T03:23:53;94979.41;;;3.20;48.97
33191;BME280;19554;42.652;23.364;2023-03-13T03:26:19;94983.53;;;3.16;49.41
33191;BME280;19554;42.652;23.364;2023-03-13T03:28:44;94986.78;;;2.94;50.59
33191;BME280;19554;42.652;23.364;2023-03-13T03:31:12;95001.91;;;2.64;52.23
33191;BME280;19554;42.652;23.364;2023-03-13T03:33:38;95002.63;;;2.29;53.65
33191;BME280;19554;42.652;23.364;2023-03-13T03:36:06;95004.47;;;1.98;55.04
33191;BME280;19554;42.652;23.364;2023-03-13T03:38:32;94999.88;;;1.82;55.17
33191;BME280;19554;42.652;23.364;2023-03-13T03:40:58;95011.63;;;1.79;55.76
33191;BME280;19554;42.652;23.364;2023-03-13T03:43:24;95009.59;;;1.81;55.76
33191;BME280;19554;42.652;23.364;2023-03-13T03:45:49;95019.72;;;1.96;55.37
33191;BME280;19554;42.652;23.364;2023-03-13T03:48:14;95008.50;;;2.01;55.11
33191;BME280;19554;42.652;23.364;2023-03-13T03:50:40;94939.53;;;1.50;54.78
33191;BME280;19554;42.652;23.364;2023-03-13T03:53:05;95039.69;;;2.16;54.97
33191;BME280;19554;42.652;23.364;2023-03-13T03:55:32;95036.59;;;2.19;54.79
33191;BME280;19554;42.652;23.364;2023-03-13T03:57:57;95045.22;;;2.26;54.18
33191;BME280;19554;42.652;23.364;2023-03-13T04:00:22;95038.59;;;2.35;54.04
33191;BME280;19554;42.652;23.364;2023-03-13T04:02:48;95032.06;;;2.26;54.51
33191;BME280;19554;42.652;23.364;2023-03-13T04:05:13;95006.72;;;2.13;54.49
33191;BME280;19554;42.652;23.364;2023-03-13T04:07:39;95049.38;;;2.33;54.88
33191;BME280;19554;42.652;23.364;2023-03-13T04:10:04;95054.09;;;2.43;54.52
33191;BME280;19554;42.652;23.364;2023-03-13T04:12:30;94949.28;;;1.80;54.49
33191;BME280;19554;42.652;23.364;2023-03-13T04:14:55;95048.00;;;2.43;54.29
33191;BME280;19554;42.652;23.364;2023-03-13T04:17:21;95061.22;;;2.54;53.78
33191;BME280;19554;42.652;23.364;2023-03-13T04:19:46;95072.47;;;2.61;53.37
33191;BME280;19554;42.652;23.364;2023-03-13T04:22:11;95070.41;;;2.64;53.82
33191;BME280;19554;42.652;23.364;2023-03-13T04:24:37;95070.75;;;2.67;53.67
33191;BME280;19554;42.652;23.364;2023-03-13T04:27:02;95078.56;;;2.74;53.67
33191;BME280;19554;42.652;23.364;2023-03-13T04:29:31;95061.47;;;2.65;53.26
33191;BME280;19554;42.652;23.364;2023-03-13T04:31:56;95056.41;;;2.63;52.78
33191;BME280;19554;42.652;23.364;2023-03-13T04:34:22;95024.53;;;2.41;52.75
33191;BME280;19554;42.652;23.364;2023-03-13T04:36:47;94982.44;;;2.11;53.05
33191;BME280;19554;42.652;23.364;2023-03-13T04:39:13;95093.78;;;2.72;52.61
33191;BME280;19554;42.652;23.364;2023-03-13T04:41:38;95088.38;;;2.55;52.41
33191;BME280;19554;42.652;23.364;2023-03-13T04:44:04;95002.09;;;1.97;52.21
33191;BME280;19554;42.652;23.364;2023-03-13T04:46:29;95052.31;;;2.25;52.79
33191;BME280;19554;42.652;23.364;2023-03-13T04:48:54;95021.09;;;1.99;52.61
33191;BME280;19554;42.652;23.364;2023-03-13T04:51:20;95116.75;;;2.53;52.96
33191;BME280;19554;42.652;23.364;2023-03-13T04:53:45;95104.72;;;2.45;53.75
33191;BME280;19554;42.652;23.364;2023-03-13T04:56:15;95090.34;;;2.29;53.64
33191;BME280;19554;42.652;23.364;2023-03-13T04:58:45;95117.13;;;2.56;53.65
33191;BME280;19554;42.652;23.364;2023-03-13T05:01:10;95123.13;;;2.64;53.55
33191;BME280;19554;42.652;23.364;2023-03-13T05:03:35;95114.19;;;2.65;53.31
33191;BME280;19554;42.652;23.364;2023-03-13T05:06:01;95107.56;;;2.74;53.42
33191;BME280;19554;42.652;23.364;2023-03-13T05:08:26;95122.03;;;3.06;53.79
33191;BME280;19554;42.652;23.364;2023-03-13T05:10:51;95112.41;;;3.24;52.96
33191;BME280;19554;42.652;23.364;2023-03-13T05:13:17;95110.94;;;3.51;51.67
33191;BME280;19554;42.652;23.364;2023-03-13T05:15:43;95119.06;;;3.73;50.94
33191;BME280;19554;42.652;23.364;2023-03-13T05:18:08;95122.34;;;3.92;50.20
33191;BME280;19554;42.652;23.364;2023-03-13T05:20:33;95115.56;;;3.96;49.87
33191;BME280;19554;42.652;23.364;2023-03-13T05:22:59;95132.50;;;4.24;49.61
33191;BME280;19554;42.652;23.364;2023-03-13T05:25:24;95134.38;;;4.52;48.86
33191;BME280;19554;42.652;23.364;2023-03-13T05:27:49;95139.88;;;4.79;48.25
33191;BME280;19554;42.652;23.364;2023-03-13T05:30:15;95132.44;;;4.93;47.82
33191;BME280;19554;42.652;23.364;2023-03-13T05:32:40;95125.16;;;5.17;47.31
33191;BME280;19554;42.652;23.364;2023-03-13T05:35:06;95059.88;;;5.06;46.16
33191;BME280;19554;42.652;23.364;2023-03-13T05:37:31;95044.25;;;5.04;45.91
33191;BME280;19554;42.652;23.364;2023-03-13T05:39:57;95143.69;;;5.89;45.12
33191;BME280;19554;42.652;23.364;2023-03-13T05:42:22;95153.00;;;6.09;45.38
33191;BME280;19554;42.652;23.364;2023-03-13T05:44:47;95152.47;;;6.12;44.71
33191;BME280;19554;42.652;23.364;2023-03-13T05:47:13;95151.75;;;6.38;44.16
33191;BME280;19554;42.652;23.364;2023-03-13T05:49:38;95084.63;;;6.11;43.55
33191;BME280;19554;42.652;23.364;2023-03-13T05:52:04;95147.25;;;6.61;43.41
33191;BME280;19554;42.652;23.364;2023-03-13T05:54:29;95130.25;;;6.62;43.27
33191;BME280;19554;42.652;23.364;2023-03-13T05:56:54;95149.81;;;6.78;43.42
33191;BME280;19554;42.652;23.364;2023-03-13T05:59:20;95156.19;;;6.55;46.89
33191;BME280;19554;42.652;23.364;2023-03-13T06:01:45;95149.22;;;6.49;45.20
33191;BME280;19554;42.652;23.364;2023-03-13T06:04:11;95157.34;;;5.98;45.92
33191;BME280;19554;42.652;23.364;2023-03-13T06:06:36;95164.59;;;5.69;46.03
33191;BME280;19554;42.652;23.364;2023-03-13T06:09:01;95097.38;;;5.53;48.49
33191;BME280;19554;42.652;23.364;2023-03-13T06:11:27;95168.88;;;6.53;47.62
33191;BME280;19554;42.652;23.364;2023-03-13T06:13:52;95112.91;;;6.27;45.21
33191;BME280;19554;42.652;23.364;2023-03-13T06:16:17;95172.44;;;6.85;44.19
33191;BME280;19554;42.652;23.364;2023-03-13T06:18:43;95165.63;;;6.95;42.78
33191;BME280;19554;42.652;23.364;2023-03-13T06:21:09;95163.97;;;6.88;42.44
33191;BME280;19554;42.652;23.364;2023-03-13T06:23:34;95143.09;;;6.70;43.43
33191;BME280;19554;42.652;23.364;2023-03-13T06:26:00;95164.19;;;6.87;43.56
33191;BME280;19554;42.652;23.364;2023-03-13T06:28:26;95167.13;;;7.12;43.01
33191;BME280;19554;42.652;23.364;2023-03-13T06:30:51;95164.97;;;7.42;42.14
33191;BME280;19554;42.652;23.364;2023-03-13T06:33:17;95175.41;;;7.21;42.15
33191;BME280;19554;42.652;23.364;2023-03-13T06:35:43;95169.78;;;7.45;41.16
33191;BME280;19554;42.652;23.364;2023-03-13T06:38:09;95071.69;;;6.63;41.34
33191;BME280;19554;42.652;23.364;2023-03-13T06:40:34;95116.41;;;7.14;41.53
33191;BME280;19554;42.652;23.364;2023-03-13T06:43:00;95145.78;;;6.75;42.79
33191;BME280;19554;42.652;23.364;2023-03-13T06:45:25;95052.69;;;5.79;42.71
33191;BME280;19554;42.652;23.364;2023-03-13T06:47:51;95149.88;;;6.61;42.85
33191;BME280;19554;42.652;23.364;2023-03-13T06:50:17;95137.78;;;6.70;42.26
33191;BME280;19554;42.652;23.364;2023-03-13T06:52:42;95150.97;;;7.19;41.29
33191;BME280;19554;42.652;23.364;2023-03-13T06:55:08;95153.88;;;7.18;40.68
33191;BME280;19554;42.652;23.364;2023-03-13T06:57:34;95159.06;;;7.02;41.84
33191;BME280;19554;42.652;23.364;2023-03-13T06:59:59;95152.06;;;7.23;41.75
33191;BME280;19554;42.652;23.364;2023-03-13T07:02:24;95129.81;;;7.29;41.33
33191;BME280;19554;42.652;23.364;2023-03-13T07:04:50;95138.63;;;7.72;40.35
33191;BME280;19554;42.652;23.364;2023-03-13T07:07:15;95088.13;;;7.67;40.35
33191;BME280;19554;42.652;23.364;2023-03-13T07:09:40;95129.59;;;8.21;38.85
33191;BME280;19554;42.652;23.364;2023-03-13T07:12:06;95144.25;;;8.28;38.88
33191;BME280;19554;42.652;23.364;2023-03-13T07:14:31;95129.50;;;8.00;38.67
33191;BME280;19554;42.652;23.364;2023-03-13T07:17:00;95138.06;;;8.13;39.04
33191;BME280;19554;42.652;23.364;2023-03-13T07:19:25;95144.66;;;8.05;39.04
33191;BME280;19554;42.652;23.364;2023-03-13T07:21:51;95145.41;;;7.90;39.38
33191;BME280;19554;42.652;23.364;2023-03-13T07:24:17;95125.31;;;8.15;39.20
33191;BME280;19554;42.652;23.364;2023-03-13T07:26:43;95129.59;;;8.21;39.42
33191;BME280;19554;42.652;23.364;2023-03-13T07:29:08;95136.22;;;8.18;39.38
33191;BME280;19554;42.652;23.364;2023-03-13T07:31:34;95127.50;;;8.33;39.24
33191;BME280;19554;42.652;23.364;2023-03-13T07:33:59;95081.38;;;7.97;38.91
33191;BME280;19554;42.652;23.364;2023-03-13T07:36:25;95130.16;;;8.33;38.51
33191;BME280;19554;42.652;23.364;2023-03-13T07:38:51;95129.97;;;8.40;38.90
33191;BME280;19554;42.652;23.364;2023-03-13T07:41:18;95092.63;;;8.14;38.69
33191;BME280;19554;42.652;23.364;2023-03-13T07:43:43;95118.19;;;8.30;38.71
33191;BME280;19554;42.652;23.364;2023-03-13T07:46:14;95141.56;;;8.18;39.31
33191;BME280;19554;42.652;23.364;2023-03-13T07:48:40;95145.00;;;8.14;38.96
33191;BME280;19554;42.652;23.364;2023-03-13T07:51:10;95138.78;;;8.03;39.49
33191;BME280;19554;42.652;23.364;2023-03-13T07:53:37;95139.03;;;7.96;39.98
33191;BME280;19554;42.652;23.364;2023-03-13T07:56:13;95135.06;;;7.56;40.47
33191;BME280;19554;42.652;23.364;2023-03-13T07:58:40;95144.09;;;7.18;41.17
33191;BME280;19554;42.652;23.364;2023-03-13T08:03:34;95132.59;;;7.45;40.96
33191;BME280;19554;42.652;23.364;2023-03-13T08:06:07;95129.63;;;7.73;40.88
33191;BME280;19554;42.652;23.364;2023-03-13T08:08:33;95107.22;;;7.64;40.77
33191;BME280;19554;42.652;23.364;2023-03-13T08:11:00;95110.00;;;7.84;40.55
33191;BME280;19554;42.652;23.364;2023-03-13T08:13:26;95121.78;;;7.99;40.42
33191;BME280;19554;42.652;23.364;2023-03-13T08:15:51;95121.78;;;7.99;41.10
33191;BME280;19554;42.652;23.364;2023-03-13T08:18:17;95107.53;;;8.25;40.29
33191;BME280;19554;42.652;23.364;2023-03-13T08:20:42;95105.53;;;8.53;39.35
33191;BME280;19554;42.652;23.364;2023-03-13T08:23:07;95110.91;;;8.73;39.51
33191;BME280;19554;42.652;23.364;2023-03-13T08:25:33;95118.16;;;9.04;39.27
33191;BME280;19554;42.652;23.364;2023-03-13T08:27:58;95117.34;;;9.29;38.69
33191;BME280;19554;42.652;23.364;2023-03-13T08:30:23;95110.94;;;9.09;38.36
33191;BME280;19554;42.652;23.364;2023-03-13T08:32:49;95121.06;;;9.07;38.43
33191;BME280;19554;42.652;23.364;2023-03-13T08:35:14;95121.63;;;9.24;38.72
33191;BME280;19554;42.652;23.364;2023-03-13T08:37:40;95118.69;;;9.26;37.77
33191;BME280;19554;42.652;23.364;2023-03-13T08:40:06;95127.44;;;8.91;38.02
33191;BME280;19554;42.652;23.364;2023-03-13T08:42:36;95129.50;;;8.58;38.90
33191;BME280;19554;42.652;23.364;2023-03-13T08:45:02;95134.28;;;8.61;38.66
33191;BME280;19554;42.652;23.364;2023-03-13T08:47:28;95127.41;;;8.65;38.81
33191;BME280;19554;42.652;23.364;2023-03-13T08:49:54;95124.25;;;8.99;38.65
33191;BME280;19554;42.652;23.364;2023-03-13T08:52:19;95126.28;;;8.56;38.77
33191;BME280;19554;42.652;23.364;2023-03-13T08:54:47;95117.22;;;8.47;39.15
33191;BME280;19554;42.652;23.364;2023-03-13T08:57:12;95105.59;;;8.84;38.65
33191;BME280;19554;42.652;23.364;2023-03-13T08:59:39;95115.69;;;8.76;38.31
33191;BME280;19554;42.652;23.364;2023-03-13T09:02:04;94997.13;;;7.97;38.45
33191;BME280;19554;42.652;23.364;2023-03-13T09:04:30;95118.38;;;8.92;37.86
33191;BME280;19554;42.652;23.364;2023-03-13T09:06:55;95111.44;;;8.81;38.11
33191;BME280;19554;42.652;23.364;2023-03-13T09:09:20;95110.94;;;9.04;37.92
33191;BME280;19554;42.652;23.364;2023-03-13T09:11:46;95117.34;;;9.18;37.59
33191;BME280;19554;42.652;23.364;2023-03-13T09:14:11;95105.09;;;9.12;37.59
33191;BME280;19554;42.652;23.364;2023-03-13T09:16:37;95098.19;;;8.96;37.85
33191;BME280;19554;42.652;23.364;2023-03-13T09:19:02;95114.16;;;9.27;37.26
33191;BME280;19554;42.652;23.364;2023-03-13T09:21:31;95102.41;;;9.58;37.42
33191;BME280;19554;42.652;23.364;2023-03-13T09:23:57;95099.25;;;9.31;36.94
33191;BME280;19554;42.652;23.364;2023-03-13T09:26:23;95104.53;;;8.85;38.04
33191;BME280;19554;42.652;23.364;2023-03-13T09:28:50;95042.97;;;8.40;38.25
33191;BME280;19554;42.652;23.364;2023-03-13T09:31:18;95106.59;;;8.57;38.42
33191;BME280;19554;42.652;23.364;2023-03-13T09:33:46;95106.06;;;8.50;38.39
33191;BME280;19554;42.652;23.364;2023-03-13T09:36:12;95065.06;;;8.41;38.30
33191;BME280;19554;42.652;23.364;2023-03-13T09:38:38;95107.97;;;8.85;38.12
33191;BME280;19554;42.652;23.364;2023-03-13T09:41:35;95097.59;;;8.89;37.69
33191;BME280;19554;42.652;23.364;2023-03-13T09:47:13;95102.69;;;9.52;37.22
33191;BME280;19554;42.652;23.364;2023-03-13T09:52:04;95106.09;;;9.93;35.97
33191;BME280;19554;42.652;23.364;2023-03-13T09:54:53;95012.66;;;9.33;35.72
33191;BME280;19554;42.652;23.364;2023-03-13T09:57:37;95097.31;;;9.77;35.84
33191;BME280;19554;42.652;23.364;2023-03-13T10:00:12;95069.28;;;9.90;36.07
33191;BME280;19554;42.652;23.364;2023-03-13T10:02:45;95083.84;;;10.28;35.50
33191;BME280;19554;42.652;23.364;2023-03-13T10:05:23;95061.84;;;9.92;36.40
33191;BME280;19554;42.652;23.364;2023-03-13T10:08:00;95089.47;;;10.16;35.29
33191;BME280;19554;42.652;23.364;2023-03-13T10:10:34;95094.41;;;9.68;36.07
33191;BME280;19554;42.652;23.364;2023-03-13T10:13:15;95069.16;;;9.15;37.39
33191;BME280;19554;42.652;23.364;2023-03-13T10:15:55;94989.53;;;8.47;37.44
33191;BME280;19554;42.652;23.364;2023-03-13T10:18:22;95077.66;;;8.91;37.90
33191;BME280;19554;42.652;23.364;2023-03-13T10:20:50;95060.88;;;8.91;37.82
33191;BME280;19554;42.652;23.364;2023-03-13T10:23:29;95060.34;;;8.99;37.94
33191;BME280;19554;42.652;23.364;2023-03-13T10:25:57;95062.47;;;8.92;37.30
33191;BME280;19554;42.652;23.364;2023-03-13T10:28:23;95001.25;;;8.76;38.13
33191;BME280;19554;42.652;23.364;2023-03-13T10:30:52;95030.25;;;9.24;37.28
33191;BME280;19554;42.652;23.364;2023-03-13T10:33:27;95040.09;;;9.44;37.17
33191;BME280;19554;42.652;23.364;2023-03-13T10:36:19;95032.63;;;9.46;36.54
33191;BME280;19554;42.652;23.364;2023-03-13T10:38:50;94939.78;;;8.73;36.76
33191;BME280;19554;42.652;23.364;2023-03-13T10:41:32;95036.94;;;9.11;36.77
33191;BME280;19554;42.652;23.364;2023-03-13T10:44:03;94934.47;;;8.52;37.04
33191;BME280;19554;42.652;23.364;2023-03-13T10:46:32;95026.28;;;9.27;36.52
33191;BME280;19554;42.652;23.364;2023-03-13T10:49:03;95024.16;;;9.13;37.19
33191;BME280;19554;42.652;23.364;2023-03-13T10:51:39;95015.06;;;9.35;37.30
33191;BME280;19554;42.652;23.364;2023-03-13T10:54:13;95011.81;;;9.58;37.09
33191;BME280;19554;42.652;23.364;2023-03-13T10:56:39;94962.00;;;9.48;36.33
33191;BME280;19554;42.652;23.364;2023-03-13T10:59:21;95004.75;;;9.93;36.12
33191;BME280;19554;42.652;23.364;2023-03-13T11:01:47;94939.88;;;9.53;36.02
33191;BME280;19554;42.652;23.364;2023-03-13T11:04:38;95004.50;;;9.89;36.07
33191;BME280;19554;42.652;23.364;2023-03-13T11:07:09;95001.69;;;9.55;36.47
33191;BME280;19554;42.652;23.364;2023-03-13T11:09:38;94993.97;;;9.48;36.75
33191;BME280;19554;42.652;23.364;2023-03-13T11:12:13;94969.56;;;9.00;37.08
33191;BME280;19554;42.652;23.364;2023-03-13T11:14:43;94943.53;;;8.82;37.65
33191;BME280;19554;42.652;23.364;2023-03-13T11:22:52;94983.03;;;9.50;37.09
33191;BME280;19554;42.652;23.364;2023-03-13T11:25:23;94977.13;;;9.68;37.16
33191;BME280;19554;42.652;23.364;2023-03-13T11:31:06;94967.81;;;10.20;35.78
33191;BME280;19554;42.652;23.364;2023-03-13T11:33:39;94964.19;;;10.01;35.74
33191;BME280;19554;42.652;23.364;2023-03-13T11:36:35;94950.34;;;9.99;36.08
33191;BME280;19554;42.652;23.364;2023-03-13T11:42:05;94948.44;;;10.05;36.03
33191;BME280;19554;42.652;23.364;2023-03-13T11:45:01;94951.91;;;10.05;36.05
33191;BME280;19554;42.652;23.364;2023-03-13T11:55:31;94924.00;;;10.37;35.14
33191;BME280;19554;42.652;23.364;2023-03-13T12:00:36;94915.22;;;10.31;35.48
33191;BME280;19554;42.652;23.364;2023-03-13T12:03:18;94914.34;;;10.41;35.33
33191;BME280;19554;42.652;23.364;2023-03-13T12:05:50;94900.88;;;10.56;35.03
33191;BME280;19554;42.652;23.364;2023-03-13T12:08:22;94897.25;;;10.42;35.18
33191;BME280;19554;42.652;23.364;2023-03-13T12:11:12;94893.25;;;10.44;35.29
33191;BME280;19554;42.652;23.364;2023-03-13T12:13:43;94899.84;;;10.52;34.86
33191;BME280;19554;42.652;23.364;2023-03-13T12:16:14;94886.38;;;10.67;34.73
33191;BME280;19554;42.652;23.364;2023-03-13T12:18:43;94886.28;;;10.78;34.92
33191;BME280;19554;42.652;23.364;2023-03-13T12:24:02;94810.66;;;10.58;34.12
33191;BME280;19554;42.652;23.364;2023-03-13T12:31:57;94869.25;;;10.74;34.46
33191;BME280;19554;42.652;23.364;2023-03-13T12:35:00;94870.28;;;10.78;34.32
33191;BME280;19554;42.652;23.364;2023-03-13T12:37:54;94868.66;;;10.77;35.01
33191;BME280;19554;42.652;23.364;2023-03-13T12:43:30;94871.91;;;10.74;34.06
33191;BME280;19554;42.652;23.364;2023-03-13T12:48:50;94857.44;;;10.51;34.73
33191;BME280;19554;42.652;23.364;2023-03-13T13:00:21;94782.28;;;10.04;34.81
33191;BME280;19554;42.652;23.364;2023-03-13T13:03:01;94880.75;;;10.69;34.76
33191;BME280;19554;42.652;23.364;2023-03-13T13:05:30;94861.28;;;10.68;34.77
33191;BME280;19554;42.652;23.364;2023-03-13T13:07:56;94870.50;;;10.81;34.66
33191;BME280;19554;42.652;23.364;2023-03-13T13:10:24;94875.22;;;10.89;34.36
33191;BME280;19554;42.652;23.364;2023-03-13T13:13:16;94867.44;;;10.93;35.05
33191;BME280;19554;42.652;23.364;2023-03-13T13:15:46;94868.13;;;11.04;34.89
33191;BME280;19554;42.652;23.364;2023-03-13T13:18:25;94875.22;;;11.13;34.42
33191;BME280;19554;42.652;23.364;2023-03-13T13:21:18;94866.16;;;11.14;34.45
33191;BME280;19554;42.652;23.364;2023-03-13T13:23:45;94867.22;;;11.13;34.62
33191;BME280;19554;42.652;23.364;2023-03-13T13:36:53;94851.16;;;10.65;34.72
33191;BME280;19554;42.652;23.364;2023-03-13T13:40:08;94847.06;;;10.73;34.78
33191;BME280;19554;42.652;23.364;2023-03-13T13:47:28;94844.56;;;10.58;35.25
33191;BME280;19554;42.652;23.364;2023-03-13T13:49:56;94852.28;;;10.59;35.19
33191;BME280;19554;42.652;23.364;2023-03-13T13:52:36;94838.94;;;10.59;35.33
33191;BME280;19554;42.652;23.364;2023-03-13T13:57:58;94840.72;;;10.93;35.59
33191;BME280;19554;42.652;23.364;2023-03-13T14:00:26;94833.06;;;11.10;34.72
33191;BME280;19554;42.652;23.364;2023-03-13T14:02:54;94830.28;;;11.21;34.20
33191;BME280;19554;42.652;23.364;2023-03-13T14:08:07;94835.34;;;11.22;34.38
33191;BME280;19554;42.652;23.364;2023-03-13T14:10:39;94844.84;;;11.09;34.12
33191;BME280;19554;42.652;23.364;2023-03-13T14:15:41;94816.25;;;10.86;34.53
33191;BME280;19554;42.652;23.364;2023-03-13T14:18:23;94834.25;;;10.99;34.48
33191;BME280;19554;42.652;23.364;2023-03-13T14:23:14;94827.66;;;11.15;34.66
33191;BME280;19554;42.652;23.364;2023-03-13T14:25:52;94831.25;;;11.30;33.61
33191;BME280;19554;42.652;23.364;2023-03-13T14:28:25;94828.66;;;11.25;34.05
33191;BME280;19554;42.652;23.364;2023-03-13T14:30:53;94833.69;;;11.26;33.68